createdAt,value
2022-08-11T00:00:14.803Z,4.18
2022-08-11T00:02:51.616Z,3.13
2022-08-11T00:05:21.712Z,3.95
2022-08-11T00:07:59.209Z,1.80
2022-08-11T00:10:28.768Z,3.08
2022-08-11T00:13:00.227Z,2.92
2022-08-11T00:15:41.958Z,4.72
2022-08-11T00:18:10.376Z,3.75
2022-08-11T00:20:42.809Z,1.38
2022-08-11T00:23:19.940Z,4.95
2022-08-11T00:25:50.502Z,1.98
2022-08-11T00:28:34.605Z,4.20
2022-08-11T00:31:31.245Z,2.92
2022-08-11T00:34:00.840Z,3.20
2022-08-11T00:36:55.797Z,2.72
2022-08-11T00:39:28.408Z,2.78
2022-08-11T00:42:34.874Z,2.08
2022-08-11T00:45:58.260Z,1.80
2022-08-11T00:49:28.398Z,1.98
2022-08-11T00:52:07.000Z,2.95
2022-08-11T00:54:51.831Z,4.97
2022-08-11T00:57:51.109Z,3.10
2022-08-11T01:03:30.812Z,4.07
2022-08-11T01:06:09.651Z,2.97
2022-08-11T01:09:22.186Z,4.18
2022-08-11T01:12:29.318Z,6.78
2022-08-11T01:15:34.378Z,3.42
2022-08-11T01:18:42.399Z,2.95
2022-08-11T01:21:30.990Z,2.22
2022-08-11T01:24:36.658Z,3.13
2022-08-11T01:27:54.118Z,4.82
2022-08-11T01:30:58.743Z,3.20
2022-08-11T01:34:08.675Z,3.75
2022-08-11T01:36:57.233Z,3.10
2022-08-11T01:40:11.881Z,3.67
2022-08-11T01:43:34.217Z,4.20
2022-08-11T01:46:21.652Z,3.33
2022-08-11T01:50:05.804Z,2.65
2022-08-11T01:52:33.632Z,2.88
2022-08-11T01:55:33.960Z,2.47
2022-08-11T01:58:44.207Z,1.75
2022-08-11T02:01:29.602Z,4.70
2022-08-11T02:04:34.785Z,3.10
2022-08-11T02:07:20.649Z,4.35
2022-08-11T02:10:38.636Z,2.58
2022-08-11T02:13:46.785Z,3.63
2022-08-11T02:16:49.195Z,5.80
2022-08-11T02:19:49.779Z,4.15
2022-08-11T02:23:07.672Z,3.08
2022-08-11T02:26:06.004Z,3.50
2022-08-11T02:29:02.111Z,2.95
2022-08-11T02:32:30.736Z,3.88
2022-08-11T02:37:34.111Z,3.13
2022-08-11T02:40:34.251Z,5.43
2022-08-11T02:43:41.018Z,3.13
2022-08-11T02:46:25.041Z,5.00
2022-08-11T02:49:22.922Z,2.67
2022-08-11T02:52:19.270Z,4.18
2022-08-11T02:55:44.657Z,3.38
2022-08-11T02:59:09.441Z,3.08
2022-08-11T03:02:41.295Z,5.05
2022-08-11T03:05:12.165Z,3.83
2022-08-11T03:08:11.458Z,3.75
2022-08-11T03:13:43.066Z,2.90
2022-08-11T03:17:08.421Z,4.22
2022-08-11T03:19:54.247Z,3.60
2022-08-11T03:22:34.679Z,4.07
2022-08-11T03:25:31.502Z,4.10
2022-08-11T03:28:11.244Z,4.18
2022-08-11T03:31:19.322Z,2.63
2022-08-11T03:34:07.129Z,4.90
2022-08-11T03:37:16.029Z,4.23
2022-08-11T03:40:46.711Z,7.15
2022-08-11T03:43:45.781Z,2.50
2022-08-11T03:46:59.776Z,4.97
2022-08-11T03:50:03.849Z,3.38
2022-08-11T03:52:50.015Z,3.25
2022-08-11T03:55:45.024Z,4.22
2022-08-11T03:58:35.872Z,3.72
2022-08-11T04:01:38.475Z,3.55
2022-08-11T04:04:58.900Z,5.25
2022-08-11T04:07:34.509Z,5.13
2022-08-11T04:10:51.651Z,4.32
2022-08-11T04:14:36.872Z,6.50
2022-08-11T04:17:39.746Z,2.92
2022-08-11T04:20:58.014Z,4.63
2022-08-11T04:24:36.971Z,3.87
2022-08-11T04:26:57.487Z,5.20
2022-08-11T04:30:34.724Z,4.70
2022-08-11T04:33:49.694Z,5.10
2022-08-11T04:37:26.259Z,3.25
2022-08-11T04:40:46.015Z,4.00
2022-08-11T04:43:28.508Z,6.18
2022-08-11T04:46:26.650Z,5.43
2022-08-11T04:49:59.478Z,3.15
2022-08-11T04:52:54.384Z,3.90
2022-08-11T04:56:29.150Z,6.20
2022-08-11T04:59:29.608Z,5.78
2022-08-11T05:02:36.767Z,4.18
2022-08-11T05:05:56.647Z,5.20
2022-08-11T05:09:00.977Z,5.75
2022-08-11T05:11:36.039Z,5.47
2022-08-11T05:14:24.586Z,6.13
2022-08-11T05:17:30.147Z,6.13
2022-08-11T05:20:16.186Z,5.35
2022-08-11T05:23:09.831Z,7.18
2022-08-11T05:26:47.117Z,5.03
2022-08-11T05:29:21.568Z,4.15
2022-08-11T05:32:26.849Z,3.20
2022-08-11T05:34:55.960Z,4.78
2022-08-11T05:37:33.011Z,5.25
2022-08-11T05:40:30.722Z,5.25
2022-08-11T05:43:25.689Z,5.65
2022-08-11T05:46:24.263Z,6.60
2022-08-11T05:49:11.765Z,5.63
2022-08-11T05:52:05.791Z,6.43
2022-08-11T05:55:06.157Z,6.13
2022-08-11T05:57:49.550Z,6.15
2022-08-11T06:00:20.055Z,6.97
2022-08-11T06:02:55.374Z,5.70
2022-08-11T06:05:38.363Z,3.17
2022-08-11T06:08:12.616Z,7.47
2022-08-11T06:10:45.369Z,4.78
2022-08-11T06:13:17.545Z,6.63
2022-08-11T06:15:49.647Z,5.18
2022-08-11T06:18:17.947Z,4.43
2022-08-11T06:20:56.443Z,5.75
2022-08-11T06:23:32.002Z,6.18
2022-08-11T06:26:00.457Z,5.45
2022-08-11T06:28:38.366Z,7.40
2022-08-11T06:31:24.041Z,5.20
2022-08-11T06:33:51.176Z,5.68
2022-08-11T06:36:38.788Z,6.43
2022-08-11T06:39:29.396Z,9.00
2022-08-11T06:42:10.981Z,5.50
2022-08-11T06:44:53.956Z,3.97
2022-08-11T06:47:21.180Z,5.03
2022-08-11T06:50:07.867Z,5.25
2022-08-11T06:52:42.304Z,5.25
2022-08-11T06:55:57.233Z,3.63
2022-08-11T06:58:54.514Z,4.43
2022-08-11T07:02:08.657Z,5.32
2022-08-11T07:04:43.313Z,5.93
2022-08-11T07:08:34.347Z,6.90
2022-08-11T07:12:04.315Z,4.03
2022-08-11T07:14:50.787Z,4.05
2022-08-11T07:17:25.898Z,4.95
2022-08-11T07:20:20.968Z,5.53
2022-08-11T07:23:18.211Z,5.57
2022-08-11T07:26:11.207Z,3.13
2022-08-11T07:28:59.132Z,8.02
2022-08-11T07:31:42.106Z,6.70
2022-08-11T07:34:18.713Z,6.32
2022-08-11T07:36:59.501Z,6.07
2022-08-11T07:39:33.562Z,7.28
2022-08-11T07:42:08.419Z,5.75
2022-08-11T07:44:59.691Z,4.78
2022-08-11T07:47:47.301Z,6.90
2022-08-11T07:50:33.964Z,5.32
2022-08-11T07:53:03.444Z,3.08
2022-08-11T07:55:50.241Z,5.68
2022-08-11T07:58:45.694Z,5.22
2022-08-11T08:01:44.026Z,6.20
2022-08-11T08:04:36.350Z,4.25
2022-08-11T08:07:24.126Z,6.07
2022-08-11T08:10:14.071Z,6.70
2022-08-11T08:13:01.699Z,3.80
2022-08-11T08:15:48.789Z,5.45
2022-08-11T08:18:26.700Z,6.90
2022-08-11T08:20:57.354Z,4.00
2022-08-11T08:23:34.689Z,4.75
2022-08-11T08:26:28.317Z,5.00
2022-08-11T08:29:17.708Z,7.00
2022-08-11T08:31:47.035Z,5.35
2022-08-11T08:34:15.976Z,5.80
2022-08-11T08:36:50.559Z,7.53
2022-08-11T08:39:22.883Z,5.55
2022-08-11T08:41:56.761Z,5.07
2022-08-11T08:44:38.398Z,5.82
2022-08-11T08:47:13.679Z,3.95
2022-08-11T08:49:49.446Z,7.18
2022-08-11T08:52:33.292Z,3.45
2022-08-11T08:55:19.397Z,4.38
2022-08-11T08:57:50.741Z,4.50
2022-08-11T09:00:23.043Z,6.78
2022-08-11T09:02:51.985Z,4.35
2022-08-11T09:05:20.139Z,5.77
2022-08-11T09:07:51.210Z,5.45
2022-08-11T09:10:20.499Z,5.13
2022-08-11T09:12:49.205Z,4.72
2022-08-11T09:15:19.667Z,9.23
2022-08-11T09:17:52.043Z,4.65
2022-08-11T09:20:26.127Z,10.00
2022-08-11T09:26:30.489Z,5.85
2022-08-11T09:28:59.953Z,5.78
2022-08-11T09:31:34.543Z,3.80
2022-08-11T09:34:06.338Z,3.97
2022-08-11T09:36:53.255Z,5.85
2022-08-11T09:39:44.010Z,5.97
2022-08-11T09:42:16.712Z,4.18
2022-08-11T09:44:52.773Z,2.78
2022-08-11T09:47:28.974Z,3.50
2022-08-11T09:50:02.568Z,4.78
2022-08-11T09:52:38.710Z,4.75
2022-08-11T09:55:11.207Z,4.35
2022-08-11T09:58:05.936Z,3.38
2022-08-11T10:00:37.555Z,6.32
2022-08-11T10:03:20.478Z,5.22
2022-08-11T10:06:12.130Z,4.93
2022-08-11T10:08:42.318Z,2.95
2022-08-11T10:11:14.738Z,4.13
2022-08-11T10:14:32.597Z,6.20
2022-08-11T10:16:52.087Z,3.55
2022-08-11T10:19:22.136Z,6.75
2022-08-11T10:22:13.296Z,4.13
2022-08-11T10:25:02.915Z,2.47
2022-08-11T10:28:17.691Z,3.70
2022-08-11T10:30:36.408Z,3.92
2022-08-11T10:33:37.671Z,4.05
2022-08-11T10:36:15.968Z,5.57
2022-08-11T10:38:46.766Z,6.63
2022-08-11T10:41:33.709Z,6.05
2022-08-11T10:44:03.962Z,4.95
2022-08-11T10:46:50.832Z,4.97
2022-08-11T10:49:19.748Z,3.15
2022-08-11T10:52:06.518Z,1.80
2022-08-11T10:54:54.672Z,5.10
2022-08-11T10:57:41.833Z,5.97
2022-08-11T11:00:15.097Z,3.08
2022-08-11T11:02:44.585Z,3.38
2022-08-11T11:05:32.637Z,4.00
2022-08-11T11:08:45.578Z,5.53
2022-08-11T11:11:18.278Z,3.58
2022-08-11T11:14:29.161Z,3.75
2022-08-11T11:17:15.721Z,6.22
2022-08-11T11:19:44.965Z,4.57
2022-08-11T11:22:33.897Z,4.65
2022-08-11T11:27:56.661Z,5.97
2022-08-11T11:30:32.301Z,4.18
2022-08-11T11:33:18.429Z,4.47
2022-08-11T11:36:07.149Z,3.97
2022-08-11T11:38:34.579Z,3.70
2022-08-11T11:41:20.620Z,6.20
2022-08-11T11:43:48.154Z,5.30
2022-08-11T11:46:17.059Z,3.65
2022-08-11T11:48:44.513Z,5.60
2022-08-11T11:51:14.088Z,3.78
2022-08-11T11:53:45.522Z,5.03
2022-08-11T11:56:13.564Z,5.60
2022-08-11T11:58:59.505Z,3.42
2022-08-11T12:01:27.307Z,2.97
2022-08-11T12:03:56.769Z,2.90
2022-08-11T12:06:25.509Z,2.75
2022-08-11T12:08:56.519Z,4.63
2022-08-11T12:11:44.656Z,4.50
2022-08-11T12:14:12.643Z,2.93
2022-08-11T12:16:44.950Z,2.88
2022-08-11T12:19:16.233Z,2.45
2022-08-11T12:22:02.859Z,3.28
2022-08-11T12:24:51.401Z,3.78
2022-08-11T12:27:25.510Z,3.38
2022-08-11T12:30:00.449Z,3.95
2022-08-11T12:32:34.905Z,7.13
2022-08-11T12:35:02.495Z,3.53
2022-08-11T12:37:38.298Z,5.97
2022-08-11T12:40:42.536Z,4.32
2022-08-11T12:43:41.303Z,5.75
2022-08-11T12:46:31.913Z,2.95
2022-08-11T12:49:26.652Z,3.10
2022-08-11T12:52:13.582Z,3.60
2022-08-11T12:54:54.376Z,2.22
2022-08-11T12:58:00.377Z,2.90
2022-08-11T13:00:48.531Z,2.70
2022-08-11T13:03:38.438Z,4.33
2022-08-11T13:06:07.059Z,4.40
2022-08-11T13:08:38.431Z,5.28
2022-08-11T13:11:25.549Z,3.35
2022-08-11T13:14:15.278Z,4.32
2022-08-11T13:17:03.430Z,3.13
2022-08-11T13:19:32.469Z,3.60
2022-08-11T13:24:28.651Z,3.83
2022-08-11T13:26:56.430Z,6.13
2022-08-11T13:29:29.046Z,2.63
2022-08-11T13:31:59.900Z,3.28
2022-08-11T13:34:31.077Z,2.75
2022-08-11T13:37:01.677Z,2.55
2022-08-11T13:39:31.676Z,7.05
2022-08-11T13:42:00.952Z,7.40
2022-08-11T13:44:32.015Z,2.70
2022-08-11T13:47:10.646Z,3.00
2022-08-11T13:49:41.257Z,4.90
2022-08-11T13:52:15.526Z,6.80
2022-08-11T13:54:46.763Z,3.00
2022-08-11T13:58:06.435Z,2.97
2022-08-11T14:00:23.811Z,2.20
2022-08-11T14:02:57.277Z,7.35
2022-08-11T14:05:40.370Z,3.95
2022-08-11T14:08:32.539Z,3.15
2022-08-11T14:12:21.692Z,2.05
2022-08-11T14:14:21.404Z,3.80
2022-08-11T14:16:51.331Z,2.60
2022-08-11T14:19:23.287Z,3.92
2022-08-11T14:22:08.411Z,1.60
2022-08-11T14:24:43.369Z,3.25
2022-08-11T14:28:32.021Z,5.10
2022-08-11T14:30:01.080Z,3.28
2022-08-11T14:32:28.278Z,2.33
2022-08-11T14:34:55.846Z,3.53
2022-08-11T14:37:25.619Z,32.70
2022-08-11T14:40:21.562Z,3.13
2022-08-11T14:43:11.824Z,2.80
2022-08-11T14:45:59.109Z,13.77
2022-08-11T14:48:27.731Z,2.35
2022-08-11T14:50:55.639Z,3.33
2022-08-11T14:53:24.284Z,2.17
2022-08-11T14:56:10.837Z,3.65
2022-08-11T14:58:40.101Z,2.15
2022-08-11T15:01:27.698Z,4.95
2022-08-11T15:04:34.525Z,3.50
2022-08-11T15:09:11.034Z,30.98
2022-08-11T15:11:57.819Z,208.10
2022-08-11T15:14:44.226Z,251.80
2022-08-11T15:17:13.031Z,73.32
2022-08-11T15:20:02.332Z,26.55
2022-08-11T15:22:48.208Z,14.93
2022-08-11T15:25:15.939Z,7.90
2022-08-11T15:28:10.552Z,4.38
2022-08-11T15:30:57.257Z,3.15
2022-08-11T15:33:45.990Z,23.67
2022-08-11T15:36:35.190Z,105.63
2022-08-11T15:39:19.437Z,48.13
2022-08-11T15:42:12.643Z,29.33
2022-08-11T15:45:03.703Z,100.20
2022-08-11T15:47:41.556Z,63.83
2022-08-11T15:50:16.107Z,21.98
2022-08-11T15:53:01.112Z,18.48
2022-08-11T15:55:30.490Z,17.38
2022-08-11T15:58:22.158Z,10.27
2022-08-11T16:01:09.855Z,8.90
2022-08-11T16:04:09.373Z,7.22
2022-08-11T16:07:05.689Z,5.38
2022-08-11T16:09:54.962Z,4.72
2022-08-11T16:12:32.073Z,3.40
2022-08-11T16:15:26.164Z,3.10
2022-08-11T16:17:59.762Z,5.85
2022-08-11T16:20:29.480Z,2.38
2022-08-11T16:23:05.016Z,2.20
2022-08-11T16:27:04.604Z,3.38
2022-08-11T16:28:25.531Z,3.15
2022-08-11T16:30:55.182Z,25.50
2022-08-11T16:33:49.765Z,17.23
2022-08-11T16:36:32.431Z,7.78
2022-08-11T16:39:02.045Z,4.88
2022-08-11T16:41:52.930Z,3.97
2022-08-11T16:44:41.115Z,4.40
2022-08-11T16:47:13.410Z,2.97
2022-08-11T16:49:52.730Z,3.30
2022-08-11T16:52:23.962Z,2.40
2022-08-11T16:54:52.919Z,5.10
2022-08-11T16:57:45.302Z,4.93
2022-08-11T17:00:17.894Z,3.10
2022-08-11T17:03:11.944Z,5.10
2022-08-11T17:06:10.659Z,4.00
2022-08-11T17:09:08.264Z,6.07
2022-08-11T17:12:02.902Z,2.78
2022-08-11T17:14:44.665Z,1.70
2022-08-11T17:17:27.007Z,3.03
2022-08-11T17:20:40.750Z,3.97
2022-08-11T17:23:13.250Z,2.53
2022-08-11T17:25:59.665Z,4.60
2022-08-11T17:28:30.971Z,4.40
2022-08-11T17:31:21.814Z,2.95
2022-08-11T17:34:10.533Z,4.68
2022-08-11T17:36:41.786Z,2.47
2022-08-11T17:39:13.682Z,4.63
2022-08-11T17:44:46.472Z,4.90
2022-08-11T17:47:33.773Z,3.25
2022-08-11T17:50:09.322Z,3.90
2022-08-11T17:53:05.554Z,4.05
2022-08-11T17:55:54.913Z,2.50
2022-08-11T17:58:41.933Z,4.68
2022-08-11T18:01:11.434Z,4.03
2022-08-11T18:03:56.447Z,1.85
2022-08-11T18:06:33.685Z,3.25
2022-08-11T18:09:24.593Z,2.90
2022-08-11T18:12:13.106Z,4.75
2022-08-11T18:15:04.312Z,4.30
2022-08-11T18:17:51.072Z,2.92
2022-08-11T18:20:37.787Z,3.63
2022-08-11T18:23:40.514Z,3.85
2022-08-11T18:26:38.900Z,2.88
2022-08-11T18:29:28.414Z,4.13
2022-08-11T18:32:30.012Z,2.05
2022-08-11T18:35:29.028Z,2.47
2022-08-11T18:38:17.923Z,4.60
2022-08-11T18:41:08.645Z,3.45
2022-08-11T18:44:07.206Z,1.75
2022-08-11T18:46:57.399Z,2.83
2022-08-11T18:50:03.566Z,5.38
2022-08-11T18:52:55.351Z,6.45
2022-08-11T18:55:42.609Z,4.65
2022-08-11T18:58:31.455Z,6.40
2022-08-11T19:01:19.566Z,3.13
2022-08-11T19:04:10.622Z,4.85
2022-08-11T19:06:59.357Z,4.28
2022-08-11T19:09:46.700Z,3.22
2022-08-11T19:12:34.331Z,5.70
2022-08-11T19:15:21.468Z,2.92
2022-08-11T19:18:08.553Z,3.63
2022-08-11T19:20:55.626Z,1.98
2022-08-11T19:23:52.976Z,5.40
2022-08-11T19:26:41.841Z,3.65
2022-08-11T19:30:05.298Z,2.53
2022-08-11T19:32:38.362Z,3.38
2022-08-11T19:35:26.332Z,4.45
2022-08-11T19:38:13.469Z,6.18
2022-08-11T19:41:00.993Z,3.38
2022-08-11T19:43:49.499Z,5.32
2022-08-11T19:46:39.098Z,5.07
2022-08-11T19:49:26.085Z,2.53
2022-08-11T19:52:14.918Z,4.05
2022-08-11T19:55:04.879Z,2.20
2022-08-11T19:57:54.150Z,2.35
2022-08-11T20:00:41.589Z,3.28
2022-08-11T20:03:31.816Z,5.20
2022-08-11T20:06:22.911Z,2.38
2022-08-11T20:09:13.387Z,3.20
2022-08-11T20:12:03.753Z,4.07
2022-08-11T20:14:53.847Z,4.13
2022-08-11T20:17:46.034Z,5.78
2022-08-11T20:20:34.878Z,2.35
2022-08-11T20:23:25.307Z,4.38
2022-08-11T20:26:31.284Z,3.15
2022-08-11T20:29:19.833Z,4.43
2022-08-11T20:32:09.375Z,2.28
2022-08-11T20:34:58.402Z,4.55
2022-08-11T20:37:50.861Z,3.30
2022-08-11T20:40:43.371Z,2.90
2022-08-11T20:44:05.632Z,2.80
2022-08-11T20:46:44.234Z,3.72
2022-08-11T20:49:45.324Z,2.40
2022-08-11T20:52:41.569Z,4.10
2022-08-11T20:55:46.332Z,2.03
2022-08-11T21:01:46.489Z,3.03
2022-08-11T21:04:54.397Z,5.18
2022-08-11T21:07:55.485Z,2.95
2022-08-11T21:10:50.573Z,4.28
2022-08-11T21:13:47.607Z,6.78
2022-08-11T21:16:53.409Z,2.40
2022-08-11T21:19:59.481Z,5.20
2022-08-11T21:23:05.291Z,2.95
2022-08-11T21:25:59.822Z,4.85
2022-08-11T21:28:47.552Z,2.83
2022-08-11T21:31:34.966Z,3.65
2022-08-11T21:34:22.501Z,4.28
2022-08-11T21:37:10.017Z,4.75
2022-08-11T21:39:57.260Z,2.80
2022-08-11T21:42:45.800Z,4.35
2022-08-11T21:45:32.812Z,2.67
2022-08-11T21:48:20.050Z,4.60
2022-08-11T21:51:06.546Z,2.92
2022-08-11T21:53:52.486Z,3.90
2022-08-11T21:56:40.467Z,2.70
2022-08-11T21:59:29.214Z,2.13
2022-08-11T22:02:15.348Z,3.33
2022-08-11T22:05:02.288Z,3.40
2022-08-11T22:07:49.072Z,4.32
2022-08-11T22:10:40.835Z,2.85
2022-08-11T22:13:31.472Z,3.67
2022-08-11T22:16:22.423Z,3.88
2022-08-11T22:19:10.783Z,3.65
2022-08-11T22:22:03.108Z,2.43
2022-08-11T22:24:52.789Z,4.18
2022-08-11T22:27:40.011Z,4.32
2022-08-11T22:30:30.848Z,2.50
2022-08-11T22:33:24.440Z,3.22
2022-08-11T22:36:14.095Z,3.10
2022-08-11T22:39:01.760Z,4.20
2022-08-11T22:41:47.771Z,2.58
2022-08-11T22:44:33.834Z,3.78
2022-08-11T22:47:22.638Z,5.40
2022-08-11T22:50:16.989Z,4.22
2022-08-11T22:53:03.949Z,4.22
2022-08-11T22:55:50.487Z,3.72
2022-08-11T22:58:39.977Z,3.17
2022-08-11T23:01:26.429Z,2.88
2022-08-11T23:04:12.925Z,2.58
2022-08-11T23:07:01.257Z,4.60
2022-08-11T23:09:49.218Z,5.75
2022-08-11T23:12:35.720Z,2.40
2022-08-11T23:15:22.277Z,2.92
2022-08-11T23:18:08.486Z,2.90
2022-08-11T23:20:57.576Z,2.22
2022-08-11T23:23:47.207Z,5.03
2022-08-11T23:26:35.177Z,3.30
2022-08-11T23:29:22.173Z,3.15
2022-08-11T23:32:10.112Z,2.45
2022-08-11T23:35:38.110Z,3.45
2022-08-11T23:38:10.263Z,2.63
2022-08-11T23:40:57.691Z,3.58
2022-08-11T23:43:43.810Z,5.20
2022-08-11T23:46:29.812Z,4.07
2022-08-11T23:49:21.183Z,2.38
2022-08-11T23:52:09.225Z,5.40
2022-08-11T23:54:57.454Z,2.47
2022-08-11T23:57:47.950Z,4.18
